sensor_id;sensor_type;location;lat;lon;timestamp;temperature;humidity
14172;DHT22;7165;52.388;4.928;2024-03-17T00:02:25;6.90;99.90
14172;DHT22;7165;52.388;4.928;2024-03-17T00:04:52;7.00;99.90
14172;DHT22;7165;52.388;4.928;2024-03-17T00:07:20;7.00;99.90
14172;DHT22;7165;52.388;4.928;2024-03-17T00:09:46;7.00;99.90
14172;DHT22;7165;52.388;4.928;2024-03-17T00:12:12;7.00;99.90
14172;DHT22;7165;52.388;4.928;2024-03-17T00:14:39;7.00;99.90
14172;DHT22;7165;52.388;4.928;2024-03-17T00:17:05;7.00;99.90
14172;DHT22;7165;52.388;4.928;2024-03-17T00:19:32;7.00;99.90
14172;DHT22;7165;52.388;4.928;2024-03-17T00:21:58;7.00;99.90
14172;DHT22;7165;52.388;4.928;2024-03-17T00:24:26;7.00;99.90
14172;DHT22;7165;52.388;4.928;2024-03-17T00:27:00;7.00;99.90
14172;DHT22;7165;52.388;4.928;2024-03-17T00:29:27;7.00;99.90
14172;DHT22;7165;52.388;4.928;2024-03-17T00:31:53;7.00;99.90
14172;DHT22;7165;52.388;4.928;2024-03-17T00:34:20;7.00;99.90
14172;DHT22;7165;52.388;4.928;2024-03-17T00:36:46;7.00;99.90
14172;DHT22;7165;52.388;4.928;2024-03-17T00:39:13;7.00;99.90
14172;DHT22;7165;52.388;4.928;2024-03-17T00:41:41;7.00;99.90
14172;DHT22;7165;52.388;4.928;2024-03-17T00:44:08;7.00;99.90
14172;DHT22;7165;52.388;4.928;2024-03-17T00:46:34;7.00;99.90
14172;DHT22;7165;52.388;4.928;2024-03-17T00:49:01;7.00;99.90
14172;DHT22;7165;52.388;4.928;2024-03-17T00:51:27;6.90;99.90
14172;DHT22;7165;52.388;4.928;2024-03-17T00:53:54;6.90;99.90
14172;DHT22;7165;52.388;4.928;2024-03-17T00:56:22;6.90;99.90
14172;DHT22;7165;52.388;4.928;2024-03-17T00:58:50;6.90;99.90
14172;DHT22;7165;52.388;4.928;2024-03-17T01:01:17;6.90;99.90
14172;DHT22;7165;52.388;4.928;2024-03-17T01:03:44;6.90;99.90
14172;DHT22;7165;52.388;4.928;2024-03-17T01:06:10;6.90;99.90
14172;DHT22;7165;52.388;4.928;2024-03-17T01:08:37;7.00;99.90
14172;DHT22;7165;52.388;4.928;2024-03-17T01:11:03;7.00;99.90
14172;DHT22;7165;52.388;4.928;2024-03-17T01:13:34;7.00;99.90
14172;DHT22;7165;52.388;4.928;2024-03-17T01:16:02;7.00;99.90
14172;DHT22;7165;52.388;4.928;2024-03-17T01:18:29;7.00;99.90
14172;DHT22;7165;52.388;4.928;2024-03-17T01:20:55;7.00;99.90
14172;DHT22;7165;52.388;4.928;2024-03-17T01:23:22;7.00;99.90
14172;DHT22;7165;52.388;4.928;2024-03-17T01:25:48;7.00;99.90
14172;DHT22;7165;52.388;4.928;2024-03-17T01:28:15;7.00;99.90
14172;DHT22;7165;52.388;4.928;2024-03-17T01:30:41;7.10;99.90
14172;DHT22;7165;52.388;4.928;2024-03-17T01:33:09;7.10;99.90
14172;DHT22;7165;52.388;4.928;2024-03-17T01:35:36;7.10;99.90
14172;DHT22;7165;52.388;4.928;2024-03-17T01:38:03;7.10;99.90
14172;DHT22;7165;52.388;4.928;2024-03-17T01:40:29;7.10;99.90
14172;DHT22;7165;52.388;4.928;2024-03-17T01:42:56;7.20;99.90
14172;DHT22;7165;52.388;4.928;2024-03-17T01:45:27;7.20;99.90
14172;DHT22;7165;52.388;4.928;2024-03-17T01:47:56;7.20;99.90
14172;DHT22;7165;52.388;4.928;2024-03-17T01:50:25;7.20;99.90
14172;DHT22;7165;52.388;4.928;2024-03-17T01:52:53;7.30;99.90
14172;DHT22;7165;52.388;4.928;2024-03-17T01:55:21;7.30;99.90
14172;DHT22;7165;52.388;4.928;2024-03-17T01:57:49;7.30;99.90
14172;DHT22;7165;52.388;4.928;2024-03-17T02:00:16;7.30;99.90
14172;DHT22;7165;52.388;4.928;2024-03-17T02:02:44;7.30;99.90
14172;DHT22;7165;52.388;4.928;2024-03-17T02:05:10;7.30;99.90
14172;DHT22;7165;52.388;4.928;2024-03-17T02:07:38;7.40;99.90
14172;DHT22;7165;52.388;4.928;2024-03-17T02:10:04;7.40;99.90
14172;DHT22;7165;52.388;4.928;2024-03-17T02:12:31;7.40;99.90
14172;DHT22;7165;52.388;4.928;2024-03-17T02:14:58;7.40;99.90
14172;DHT22;7165;52.388;4.928;2024-03-17T02:17:25;7.40;99.90
14172;DHT22;7165;52.388;4.928;2024-03-17T02:19:52;7.50;99.90
14172;DHT22;7165;52.388;4.928;2024-03-17T02:22:20;7.50;99.90
14172;DHT22;7165;52.388;4.928;2024-03-17T02:24:46;7.50;99.90
14172;DHT22;7165;52.388;4.928;2024-03-17T02:27:13;7.60;99.90
14172;DHT22;7165;52.388;4.928;2024-03-17T02:29:39;7.60;99.90
14172;DHT22;7165;52.388;4.928;2024-03-17T02:32:06;7.60;99.90
14172;DHT22;7165;52.388;4.928;2024-03-17T02:34:32;7.60;99.90
14172;DHT22;7165;52.388;4.928;2024-03-17T02:36:59;7.70;99.90
14172;DHT22;7165;52.388;4.928;2024-03-17T02:39:27;7.70;99.90
14172;DHT22;7165;52.388;4.928;2024-03-17T02:42:05;7.80;99.90
14172;DHT22;7165;52.388;4.928;2024-03-17T02:44:33;7.80;99.90
14172;DHT22;7165;52.388;4.928;2024-03-17T02:47:02;7.80;99.90
14172;DHT22;7165;52.388;4.928;2024-03-17T02:49:31;7.80;99.90
14172;DHT22;7165;52.388;4.928;2024-03-17T02:52:02;7.90;99.90
14172;DHT22;7165;52.388;4.928;2024-03-17T02:54:31;7.90;99.90
14172;DHT22;7165;52.388;4.928;2024-03-17T02:56:58;7.90;99.90
14172;DHT22;7165;52.388;4.928;2024-03-17T02:59:25;7.90;99.90
14172;DHT22;7165;52.388;4.928;2024-03-17T03:01:52;7.90;99.90
14172;DHT22;7165;52.388;4.928;2024-03-17T03:04:20;7.90;99.90
14172;DHT22;7165;52.388;4.928;2024-03-17T03:06:47;7.90;99.90
14172;DHT22;7165;52.388;4.928;2024-03-17T03:09:14;8.00;99.90
14172;DHT22;7165;52.388;4.928;2024-03-17T03:11:48;8.00;99.90
14172;DHT22;7165;52.388;4.928;2024-03-17T03:14:15;7.90;99.90
14172;DHT22;7165;52.388;4.928;2024-03-17T03:16:42;8.00;99.90
14172;DHT22;7165;52.388;4.928;2024-03-17T03:19:09;8.00;99.90
14172;DHT22;7165;52.388;4.928;2024-03-17T03:21:36;7.90;99.90
14172;DHT22;7165;52.388;4.928;2024-03-17T03:24:03;7.90;99.90
14172;DHT22;7165;52.388;4.928;2024-03-17T03:26:30;7.90;99.90
14172;DHT22;7165;52.388;4.928;2024-03-17T03:28:58;7.90;99.90
14172;DHT22;7165;52.388;4.928;2024-03-17T03:31:25;7.90;99.90
14172;DHT22;7165;52.388;4.928;2024-03-17T03:33:52;7.90;99.90
14172;DHT22;7165;52.388;4.928;2024-03-17T03:36:20;7.90;99.90
14172;DHT22;7165;52.388;4.928;2024-03-17T03:38:47;7.90;99.90
14172;DHT22;7165;52.388;4.928;2024-03-17T03:41:15;7.90;99.90
14172;DHT22;7165;52.388;4.928;2024-03-17T03:43:42;7.90;99.90
14172;DHT22;7165;52.388;4.928;2024-03-17T03:46:11;7.90;99.90
14172;DHT22;7165;52.388;4.928;2024-03-17T03:48:38;7.90;99.90
14172;DHT22;7165;52.388;4.928;2024-03-17T03:51:05;7.90;99.90
14172;DHT22;7165;52.388;4.928;2024-03-17T03:53:32;7.90;99.90
14172;DHT22;7165;52.388;4.928;2024-03-17T03:56:02;7.90;99.90
14172;DHT22;7165;52.388;4.928;2024-03-17T03:58:31;7.90;99.90
14172;DHT22;7165;52.388;4.928;2024-03-17T04:00:59;7.90;99.90
14172;DHT22;7165;52.388;4.928;2024-03-17T04:03:28;7.80;99.90
14172;DHT22;7165;52.388;4.928;2024-03-17T04:06:02;7.80;99.90
14172;DHT22;7165;52.388;4.928;2024-03-17T04:08:30;7.80;99.90
14172;DHT22;7165;52.388;4.928;2024-03-17T04:10:56;7.80;99.90
14172;DHT22;7165;52.388;4.928;2024-03-17T04:13:23;7.90;99.90
14172;DHT22;7165;52.388;4.928;2024-03-17T04:15:50;7.90;99.90
14172;DHT22;7165;52.388;4.928;2024-03-17T04:18:22;7.80;99.90
14172;DHT22;7165;52.388;4.928;2024-03-17T04:20:52;7.80;99.90
14172;DHT22;7165;52.388;4.928;2024-03-17T04:23:20;7.80;99.90
14172;DHT22;7165;52.388;4.928;2024-03-17T04:25:47;7.80;99.90
14172;DHT22;7165;52.388;4.928;2024-03-17T04:28:14;7.80;99.90
14172;DHT22;7165;52.388;4.928;2024-03-17T04:30:41;7.80;99.90
14172;DHT22;7165;52.388;4.928;2024-03-17T04:33:08;7.80;99.90
14172;DHT22;7165;52.388;4.928;2024-03-17T04:35:35;7.80;99.90
14172;DHT22;7165;52.388;4.928;2024-03-17T04:38:04;7.80;99.90
14172;DHT22;7165;52.388;4.928;2024-03-17T04:40:31;7.70;99.90
14172;DHT22;7165;52.388;4.928;2024-03-17T04:42:58;7.70;99.90
14172;DHT22;7165;52.388;4.928;2024-03-17T04:45:25;7.80;99.90
14172;DHT22;7165;52.388;4.928;2024-03-17T04:47:52;7.80;99.90
14172;DHT22;7165;52.388;4.928;2024-03-17T04:50:19;7.80;99.90
14172;DHT22;7165;52.388;4.928;2024-03-17T04:52:47;7.80;99.90
14172;DHT22;7165;52.388;4.928;2024-03-17T04:55:16;7.80;99.90
14172;DHT22;7165;52.388;4.928;2024-03-17T04:57:44;7.80;99.90
14172;DHT22;7165;52.388;4.928;2024-03-17T05:00:12;7.80;99.90
14172;DHT22;7165;52.388;4.928;2024-03-17T05:02:39;7.80;99.90
14172;DHT22;7165;52.388;4.928;2024-03-17T05:05:06;7.80;99.90
14172;DHT22;7165;52.388;4.928;2024-03-17T05:07:36;7.80;99.90
14172;DHT22;7165;52.388;4.928;2024-03-17T05:10:03;7.80;99.90
14172;DHT22;7165;52.388;4.928;2024-03-17T05:12:32;7.80;99.90
14172;DHT22;7165;52.388;4.928;2024-03-17T05:14:59;7.80;99.90
14172;DHT22;7165;52.388;4.928;2024-03-17T05:17:26;7.80;99.90
14172;DHT22;7165;52.388;4.928;2024-03-17T05:19:53;7.80;99.90
14172;DHT22;7165;52.388;4.928;2024-03-17T05:22:20;7.80;99.90
14172;DHT22;7165;52.388;4.928;2024-03-17T05:24:47;7.90;99.90
14172;DHT22;7165;52.388;4.928;2024-03-17T05:27:14;7.90;99.90
14172;DHT22;7165;52.388;4.928;2024-03-17T05:29:42;7.90;99.90
14172;DHT22;7165;52.388;4.928;2024-03-17T05:32:09;7.90;99.90
14172;DHT22;7165;52.388;4.928;2024-03-17T05:34:37;7.90;99.90
14172;DHT22;7165;52.388;4.928;2024-03-17T05:37:04;7.90;99.90
14172;DHT22;7165;52.388;4.928;2024-03-17T05:39:31;7.90;99.90
14172;DHT22;7165;52.388;4.928;2024-03-17T05:41:58;7.90;99.90
14172;DHT22;7165;52.388;4.928;2024-03-17T05:44:25;7.90;99.90
14172;DHT22;7165;52.388;4.928;2024-03-17T05:46:56;8.00;99.90
14172;DHT22;7165;52.388;4.928;2024-03-17T05:49:24;8.00;99.90
14172;DHT22;7165;52.388;4.928;2024-03-17T05:51:51;8.00;99.90
14172;DHT22;7165;52.388;4.928;2024-03-17T05:54:19;8.00;99.90
14172;DHT22;7165;52.388;4.928;2024-03-17T05:56:46;8.10;99.90
14172;DHT22;7165;52.388;4.928;2024-03-17T05:59:13;8.10;99.90
14172;DHT22;7165;52.388;4.928;2024-03-17T06:01:40;8.10;99.90
14172;DHT22;7165;52.388;4.928;2024-03-17T06:04:08;8.10;99.90
14172;DHT22;7165;52.388;4.928;2024-03-17T06:06:35;8.10;99.90
14172;DHT22;7165;52.388;4.928;2024-03-17T06:09:02;8.20;99.90
14172;DHT22;7165;52.388;4.928;2024-03-17T06:11:30;8.20;99.90
14172;DHT22;7165;52.388;4.928;2024-03-17T06:14:00;8.20;99.90
14172;DHT22;7165;52.388;4.928;2024-03-17T06:16:29;8.20;99.90
14172;DHT22;7165;52.388;4.928;2024-03-17T06:18:56;8.20;99.90
14172;DHT22;7165;52.388;4.928;2024-03-17T06:21:24;8.20;99.90
14172;DHT22;7165;52.388;4.928;2024-03-17T06:23:50;8.30;99.90
14172;DHT22;7165;52.388;4.928;2024-03-17T06:26:17;8.30;99.90
14172;DHT22;7165;52.388;4.928;2024-03-17T06:28:46;8.40;99.90
14172;DHT22;7165;52.388;4.928;2024-03-17T06:31:12;8.40;99.90
14172;DHT22;7165;52.388;4.928;2024-03-17T06:33:39;8.40;99.90
14172;DHT22;7165;52.388;4.928;2024-03-17T06:36:06;8.50;99.90
14172;DHT22;7165;52.388;4.928;2024-03-17T06:38:34;8.50;99.90
14172;DHT22;7165;52.388;4.928;2024-03-17T06:41:01;8.50;99.90
14172;DHT22;7165;52.388;4.928;2024-03-17T06:43:27;8.50;99.90
14172;DHT22;7165;52.388;4.928;2024-03-17T06:45:54;8.50;99.90
14172;DHT22;7165;52.388;4.928;2024-03-17T06:48:22;8.60;99.90
14172;DHT22;7165;52.388;4.928;2024-03-17T06:50:49;8.60;99.90
14172;DHT22;7165;52.388;4.928;2024-03-17T06:53:16;8.60;99.90
14172;DHT22;7165;52.388;4.928;2024-03-17T06:55:45;8.60;99.90
14172;DHT22;7165;52.388;4.928;2024-03-17T06:58:18;8.60;99.90
14172;DHT22;7165;52.388;4.928;2024-03-17T07:00:52;8.60;99.90
14172;DHT22;7165;52.388;4.928;2024-03-17T07:03:18;8.70;99.90
14172;DHT22;7165;52.388;4.928;2024-03-17T07:05:50;8.70;99.90
14172;DHT22;7165;52.388;4.928;2024-03-17T07:08:17;8.70;99.90
14172;DHT22;7165;52.388;4.928;2024-03-17T07:10:55;8.70;99.90
14172;DHT22;7165;52.388;4.928;2024-03-17T07:13:22;8.70;99.90
14172;DHT22;7165;52.388;4.928;2024-03-17T07:15:48;8.70;99.90
14172;DHT22;7165;52.388;4.928;2024-03-17T07:18:15;8.70;99.90
14172;DHT22;7165;52.388;4.928;2024-03-17T07:20:42;8.70;99.90
14172;DHT22;7165;52.388;4.928;2024-03-17T07:23:09;8.80;99.90
14172;DHT22;7165;52.388;4.928;2024-03-17T07:25:36;8.80;99.90
14172;DHT22;7165;52.388;4.928;2024-03-17T07:28:04;8.80;99.90
14172;DHT22;7165;52.388;4.928;2024-03-17T07:30:31;8.80;99.90
14172;DHT22;7165;52.388;4.928;2024-03-17T07:32:57;8.90;99.90
14172;DHT22;7165;52.388;4.928;2024-03-17T07:35:24;8.90;99.90
14172;DHT22;7165;52.388;4.928;2024-03-17T07:37:51;8.90;99.90
14172;DHT22;7165;52.388;4.928;2024-03-17T07:40:17;9.00;99.90
14172;DHT22;7165;52.388;4.928;2024-03-17T07:42:44;9.10;99.90
14172;DHT22;7165;52.388;4.928;2024-03-17T07:45:13;9.20;99.90
14172;DHT22;7165;52.388;4.928;2024-03-17T07:47:39;9.30;99.90
14172;DHT22;7165;52.388;4.928;2024-03-17T07:50:06;9.40;99.90
14172;DHT22;7165;52.388;4.928;2024-03-17T07:52:33;9.50;99.90
14172;DHT22;7165;52.388;4.928;2024-03-17T07:55:00;9.50;99.90
14172;DHT22;7165;52.388;4.928;2024-03-17T07:57:27;9.60;99.90
14172;DHT22;7165;52.388;4.928;2024-03-17T07:59:54;9.60;99.90
14172;DHT22;7165;52.388;4.928;2024-03-17T08:02:22;9.60;99.90
14172;DHT22;7165;52.388;4.928;2024-03-17T08:04:48;9.60;99.90
14172;DHT22;7165;52.388;4.928;2024-03-17T08:07:15;9.60;99.90
14172;DHT22;7165;52.388;4.928;2024-03-17T08:09:42;9.60;99.90
14172;DHT22;7165;52.388;4.928;2024-03-17T08:12:08;9.70;99.90
14172;DHT22;7165;52.388;4.928;2024-03-17T08:14:36;9.70;99.90
14172;DHT22;7165;52.388;4.928;2024-03-17T08:17:02;9.70;99.90
14172;DHT22;7165;52.388;4.928;2024-03-17T08:19:32;9.90;99.90
14172;DHT22;7165;52.388;4.928;2024-03-17T08:21:59;9.90;99.90
14172;DHT22;7165;52.388;4.928;2024-03-17T08:24:26;10.00;99.90
14172;DHT22;7165;52.388;4.928;2024-03-17T08:26:52;10.10;99.90
14172;DHT22;7165;52.388;4.928;2024-03-17T08:29:19;10.20;99.90
14172;DHT22;7165;52.388;4.928;2024-03-17T08:31:46;10.40;99.90
14172;DHT22;7165;52.388;4.928;2024-03-17T08:34:15;10.50;99.90
14172;DHT22;7165;52.388;4.928;2024-03-17T08:36:43;10.60;99.90
14172;DHT22;7165;52.388;4.928;2024-03-17T08:39:09;10.60;99.90
14172;DHT22;7165;52.388;4.928;2024-03-17T08:41:36;10.60;99.90
14172;DHT22;7165;52.388;4.928;2024-03-17T08:44:03;10.60;99.90
14172;DHT22;7165;52.388;4.928;2024-03-17T08:46:31;10.60;99.90
14172;DHT22;7165;52.388;4.928;2024-03-17T08:48:58;10.60;99.90
14172;DHT22;7165;52.388;4.928;2024-03-17T08:51:25;10.60;99.90
14172;DHT22;7165;52.388;4.928;2024-03-17T08:53:54;10.60;99.90
14172;DHT22;7165;52.388;4.928;2024-03-17T08:56:22;10.60;99.90
14172;DHT22;7165;52.388;4.928;2024-03-17T08:58:49;10.60;99.90
14172;DHT22;7165;52.388;4.928;2024-03-17T09:01:15;10.70;99.90
14172;DHT22;7165;52.388;4.928;2024-03-17T09:03:42;10.80;99.90
14172;DHT22;7165;52.388;4.928;2024-03-17T09:06:13;10.80;99.90
14172;DHT22;7165;52.388;4.928;2024-03-17T09:08:41;11.00;99.90
14172;DHT22;7165;52.388;4.928;2024-03-17T09:11:11;11.10;99.90
14172;DHT22;7165;52.388;4.928;2024-03-17T09:13:38;11.30;99.90
14172;DHT22;7165;52.388;4.928;2024-03-17T09:16:05;11.60;99.90
14172;DHT22;7165;52.388;4.928;2024-03-17T09:18:32;11.70;99.90
14172;DHT22;7165;52.388;4.928;2024-03-17T09:21:02;11.90;99.90
14172;DHT22;7165;52.388;4.928;2024-03-17T09:23:29;11.90;99.90
14172;DHT22;7165;52.388;4.928;2024-03-17T09:25:56;12.00;99.90
14172;DHT22;7165;52.388;4.928;2024-03-17T09:28:25;12.00;99.90
14172;DHT22;7165;52.388;4.928;2024-03-17T09:30:51;12.10;99.90
14172;DHT22;7165;52.388;4.928;2024-03-17T09:33:19;12.20;99.90
14172;DHT22;7165;52.388;4.928;2024-03-17T09:35:52;12.20;99.90
14172;DHT22;7165;52.388;4.928;2024-03-17T09:38:19;12.20;99.90
14172;DHT22;7165;52.388;4.928;2024-03-17T09:40:46;12.20;99.90
14172;DHT22;7165;52.388;4.928;2024-03-17T09:43:12;12.30;99.90
14172;DHT22;7165;52.388;4.928;2024-03-17T09:45:40;12.20;99.90
14172;DHT22;7165;52.388;4.928;2024-03-17T09:48:07;12.20;99.90
14172;DHT22;7165;52.388;4.928;2024-03-17T09:50:40;12.20;99.90
14172;DHT22;7165;52.388;4.928;2024-03-17T09:53:08;12.10;99.90
14172;DHT22;7165;52.388;4.928;2024-03-17T09:55:39;12.10;99.90
14172;DHT22;7165;52.388;4.928;2024-03-17T09:58:06;12.10;99.90
14172;DHT22;7165;52.388;4.928;2024-03-17T10:00:37;12.10;99.90
14172;DHT22;7165;52.388;4.928;2024-03-17T10:03:05;12.10;99.90
14172;DHT22;7165;52.388;4.928;2024-03-17T10:05:32;12.00;99.90
14172;DHT22;7165;52.388;4.928;2024-03-17T10:07:59;12.00;99.90
14172;DHT22;7165;52.388;4.928;2024-03-17T10:10:26;12.00;99.90
14172;DHT22;7165;52.388;4.928;2024-03-17T10:12:52;12.00;99.90
14172;DHT22;7165;52.388;4.928;2024-03-17T10:15:19;12.00;99.90
14172;DHT22;7165;52.388;4.928;2024-03-17T10:17:46;12.00;99.90
14172;DHT22;7165;52.388;4.928;2024-03-17T10:20:18;12.00;99.90
14172;DHT22;7165;52.388;4.928;2024-03-17T10:23:01;12.10;99.90
14172;DHT22;7165;52.388;4.928;2024-03-17T10:25:29;12.20;99.90
14172;DHT22;7165;52.388;4.928;2024-03-17T10:27:56;12.40;99.90
14172;DHT22;7165;52.388;4.928;2024-03-17T10:30:23;12.50;99.90
14172;DHT22;7165;52.388;4.928;2024-03-17T10:32:54;12.50;99.90
14172;DHT22;7165;52.388;4.928;2024-03-17T10:35:26;12.50;99.90
14172;DHT22;7165;52.388;4.928;2024-03-17T10:37:54;12.60;99.90
14172;DHT22;7165;52.388;4.928;2024-03-17T10:40:22;12.60;99.90
14172;DHT22;7165;52.388;4.928;2024-03-17T10:42:49;12.60;99.90
14172;DHT22;7165;52.388;4.928;2024-03-17T10:45:16;12.60;99.90
14172;DHT22;7165;52.388;4.928;2024-03-17T10:47:43;12.60;99.90
14172;DHT22;7165;52.388;4.928;2024-03-17T10:50:14;12.60;99.90
14172;DHT22;7165;52.388;4.928;2024-03-17T10:52:44;12.70;99.90
14172;DHT22;7165;52.388;4.928;2024-03-17T10:55:17;12.70;99.90
14172;DHT22;7165;52.388;4.928;2024-03-17T10:57:46;12.70;99.90
14172;DHT22;7165;52.388;4.928;2024-03-17T11:00:14;12.80;99.90
14172;DHT22;7165;52.388;4.928;2024-03-17T11:02:43;12.80;99.90
14172;DHT22;7165;52.388;4.928;2024-03-17T11:05:11;12.90;99.90
14172;DHT22;7165;52.388;4.928;2024-03-17T11:07:40;13.00;99.90
14172;DHT22;7165;52.388;4.928;2024-03-17T11:10:14;13.00;99.90
14172;DHT22;7165;52.388;4.928;2024-03-17T11:12:42;13.10;99.90
14172;DHT22;7165;52.388;4.928;2024-03-17T11:17:55;13.10;99.90
14172;DHT22;7165;52.388;4.928;2024-03-17T11:20:23;13.10;99.90
14172;DHT22;7165;52.388;4.928;2024-03-17T11:22:50;13.10;99.90
14172;DHT22;7165;52.388;4.928;2024-03-17T11:28:04;13.30;99.90
14172;DHT22;7165;52.388;4.928;2024-03-17T11:30:44;13.40;99.90
14172;DHT22;7165;52.388;4.928;2024-03-17T11:38:50;13.60;99.90
14172;DHT22;7165;52.388;4.928;2024-03-17T11:41:33;13.60;99.90
14172;DHT22;7165;52.388;4.928;2024-03-17T11:44:18;13.60;99.90
14172;DHT22;7165;52.388;4.928;2024-03-17T11:46:50;13.60;99.90
14172;DHT22;7165;52.388;4.928;2024-03-17T11:49:19;13.50;99.90
14172;DHT22;7165;52.388;4.928;2024-03-17T11:51:47;13.50;99.90
14172;DHT22;7165;52.388;4.928;2024-03-17T11:54:14;13.60;99.90
14172;DHT22;7165;52.388;4.928;2024-03-17T11:56:44;13.60;99.90
14172;DHT22;7165;52.388;4.928;2024-03-17T11:59:10;13.70;99.90
14172;DHT22;7165;52.388;4.928;2024-03-17T12:01:38;13.70;99.90
14172;DHT22;7165;52.388;4.928;2024-03-17T12:04:04;13.70;99.90
14172;DHT22;7165;52.388;4.928;2024-03-17T12:06:31;13.70;99.90
14172;DHT22;7165;52.388;4.928;2024-03-17T12:09:07;13.80;99.90
14172;DHT22;7165;52.388;4.928;2024-03-17T12:11:35;13.80;99.90
14172;DHT22;7165;52.388;4.928;2024-03-17T12:14:08;13.90;99.90
14172;DHT22;7165;52.388;4.928;2024-03-17T12:16:36;13.90;99.90
14172;DHT22;7165;52.388;4.928;2024-03-17T12:19:06;14.10;99.90
14172;DHT22;7165;52.388;4.928;2024-03-17T12:21:34;14.30;99.90
14172;DHT22;7165;52.388;4.928;2024-03-17T12:24:00;14.40;99.90
14172;DHT22;7165;52.388;4.928;2024-03-17T12:26:28;14.50;99.90
14172;DHT22;7165;52.388;4.928;2024-03-17T12:28:55;14.50;99.90
14172;DHT22;7165;52.388;4.928;2024-03-17T12:31:21;14.50;99.90
14172;DHT22;7165;52.388;4.928;2024-03-17T12:33:47;14.50;99.90
14172;DHT22;7165;52.388;4.928;2024-03-17T12:36:15;14.50;99.90
14172;DHT22;7165;52.388;4.928;2024-03-17T12:38:41;14.50;99.90
14172;DHT22;7165;52.388;4.928;2024-03-17T12:41:15;14.40;99.90
14172;DHT22;7165;52.388;4.928;2024-03-17T12:43:47;14.40;99.90
14172;DHT22;7165;52.388;4.928;2024-03-17T12:46:14;14.30;99.90
14172;DHT22;7165;52.388;4.928;2024-03-17T12:48:39;14.30;99.90
14172;DHT22;7165;52.388;4.928;2024-03-17T12:51:12;14.20;99.90
14172;DHT22;7165;52.388;4.928;2024-03-17T12:53:39;14.20;99.90
14172;DHT22;7165;52.388;4.928;2024-03-17T12:56:06;14.10;99.90
14172;DHT22;7165;52.388;4.928;2024-03-17T12:58:50;13.90;99.90
14172;DHT22;7165;52.388;4.928;2024-03-17T13:01:35;13.80;99.90
14172;DHT22;7165;52.388;4.928;2024-03-17T13:04:04;13.70;99.90
14172;DHT22;7165;52.388;4.928;2024-03-17T13:06:32;13.70;99.90
14172;DHT22;7165;52.388;4.928;2024-03-17T13:09:00;13.60;99.90
14172;DHT22;7165;52.388;4.928;2024-03-17T13:11:27;13.50;99.90
14172;DHT22;7165;52.388;4.928;2024-03-17T13:13:55;13.50;99.90
14172;DHT22;7165;52.388;4.928;2024-03-17T13:16:22;13.40;99.90
14172;DHT22;7165;52.388;4.928;2024-03-17T13:18:49;13.40;99.90
14172;DHT22;7165;52.388;4.928;2024-03-17T13:21:16;13.30;99.90
14172;DHT22;7165;52.388;4.928;2024-03-17T13:23:44;13.30;99.90
14172;DHT22;7165;52.388;4.928;2024-03-17T13:26:12;13.30;99.90
14172;DHT22;7165;52.388;4.928;2024-03-17T13:28:38;13.20;99.90
14172;DHT22;7165;52.388;4.928;2024-03-17T13:31:05;13.20;99.90
14172;DHT22;7165;52.388;4.928;2024-03-17T13:33:33;13.20;99.90
14172;DHT22;7165;52.388;4.928;2024-03-17T13:36:00;13.30;99.90
14172;DHT22;7165;52.388;4.928;2024-03-17T13:38:27;13.40;99.90
14172;DHT22;7165;52.388;4.928;2024-03-17T13:40:54;13.40;99.90
14172;DHT22;7165;52.388;4.928;2024-03-17T13:43:22;13.40;99.90
14172;DHT22;7165;52.388;4.928;2024-03-17T13:45:49;13.50;99.90
14172;DHT22;7165;52.388;4.928;2024-03-17T13:48:16;13.50;99.90
14172;DHT22;7165;52.388;4.928;2024-03-17T13:50:42;13.50;99.90
14172;DHT22;7165;52.388;4.928;2024-03-17T13:53:09;13.60;99.90
14172;DHT22;7165;52.388;4.928;2024-03-17T13:55:36;13.50;99.90
14172;DHT22;7165;52.388;4.928;2024-03-17T13:58:03;13.60;99.90
14172;DHT22;7165;52.388;4.928;2024-03-17T14:00:31;13.60;99.90
14172;DHT22;7165;52.388;4.928;2024-03-17T14:03:01;13.60;99.90
14172;DHT22;7165;52.388;4.928;2024-03-17T14:05:28;13.60;99.90
14172;DHT22;7165;52.388;4.928;2024-03-17T14:07:55;13.70;99.90
14172;DHT22;7165;52.388;4.928;2024-03-17T14:10:22;13.90;99.90
14172;DHT22;7165;52.388;4.928;2024-03-17T14:12:49;14.20;99.90
14172;DHT22;7165;52.388;4.928;2024-03-17T14:15:16;14.40;99.90
14172;DHT22;7165;52.388;4.928;2024-03-17T14:17:45;14.60;99.90
14172;DHT22;7165;52.388;4.928;2024-03-17T14:20:12;14.80;99.90
14172;DHT22;7165;52.388;4.928;2024-03-17T14:22:39;15.10;99.90
14172;DHT22;7165;52.388;4.928;2024-03-17T14:25:07;15.60;99.90
14172;DHT22;7165;52.388;4.928;2024-03-17T14:27:35;15.90;99.90
14172;DHT22;7165;52.388;4.928;2024-03-17T14:30:02;16.00;99.90
14172;DHT22;7165;52.388;4.928;2024-03-17T14:32:29;16.00;99.90
14172;DHT22;7165;52.388;4.928;2024-03-17T14:34:57;16.00;99.90
14172;DHT22;7165;52.388;4.928;2024-03-17T14:37:24;15.90;99.90
14172;DHT22;7165;52.388;4.928;2024-03-17T14:39:51;15.90;99.90
14172;DHT22;7165;52.388;4.928;2024-03-17T14:42:18;15.70;99.90
14172;DHT22;7165;52.388;4.928;2024-03-17T14:44:45;15.40;99.90
14172;DHT22;7165;52.388;4.928;2024-03-17T14:47:12;15.20;99.90
14172;DHT22;7165;52.388;4.928;2024-03-17T14:49:39;14.90;99.90
14172;DHT22;7165;52.388;4.928;2024-03-17T14:52:08;14.80;99.90
14172;DHT22;7165;52.388;4.928;2024-03-17T14:54:36;14.70;99.90
14172;DHT22;7165;52.388;4.928;2024-03-17T14:57:02;14.60;99.90
14172;DHT22;7165;52.388;4.928;2024-03-17T14:59:29;14.60;99.90
14172;DHT22;7165;52.388;4.928;2024-03-17T15:01:56;14.60;99.90
14172;DHT22;7165;52.388;4.928;2024-03-17T15:04:23;14.60;99.90
14172;DHT22;7165;52.388;4.928;2024-03-17T15:06:52;14.70;99.90
14172;DHT22;7165;52.388;4.928;2024-03-17T15:09:21;14.70;99.90
14172;DHT22;7165;52.388;4.928;2024-03-17T15:11:47;14.70;99.90
14172;DHT22;7165;52.388;4.928;2024-03-17T15:14:14;14.70;99.90
14172;DHT22;7165;52.388;4.928;2024-03-17T15:16:41;14.60;99.90
14172;DHT22;7165;52.388;4.928;2024-03-17T15:19:07;14.50;99.90
14172;DHT22;7165;52.388;4.928;2024-03-17T15:21:34;14.40;99.90
14172;DHT22;7165;52.388;4.928;2024-03-17T15:24:01;14.30;99.90
14172;DHT22;7165;52.388;4.928;2024-03-17T15:26:29;14.20;99.90
14172;DHT22;7165;52.388;4.928;2024-03-17T15:28:56;14.20;99.90
14172;DHT22;7165;52.388;4.928;2024-03-17T15:31:23;14.10;99.90
14172;DHT22;7165;52.388;4.928;2024-03-17T15:33:50;14.00;99.90
14172;DHT22;7165;52.388;4.928;2024-03-17T15:36:17;14.00;99.90
14172;DHT22;7165;52.388;4.928;2024-03-17T15:38:45;13.90;99.90
14172;DHT22;7165;52.388;4.928;2024-03-17T15:41:11;13.80;99.90
14172;DHT22;7165;52.388;4.928;2024-03-17T15:43:40;13.80;99.90
14172;DHT22;7165;52.388;4.928;2024-03-17T15:46:07;13.80;99.90
14172;DHT22;7165;52.388;4.928;2024-03-17T15:48:34;13.70;99.90
14172;DHT22;7165;52.388;4.928;2024-03-17T15:51:01;13.70;99.90
14172;DHT22;7165;52.388;4.928;2024-03-17T15:53:26;13.60;99.90
14172;DHT22;7165;52.388;4.928;2024-03-17T15:55:53;13.60;99.90
14172;DHT22;7165;52.388;4.928;2024-03-17T15:58:20;13.60;99.90
14172;DHT22;7165;52.388;4.928;2024-03-17T16:00:48;13.50;99.90
14172;DHT22;7165;52.388;4.928;2024-03-17T16:03:15;13.50;99.90
14172;DHT22;7165;52.388;4.928;2024-03-17T16:05:44;13.50;99.90
14172;DHT22;7165;52.388;4.928;2024-03-17T16:08:11;13.50;99.90
14172;DHT22;7165;52.388;4.928;2024-03-17T16:10:39;13.40;99.90